createdAt,value
2022-09-26T00:00:07.894Z,587.38
2022-09-26T00:00:17.893Z,587.45
2022-09-26T00:00:27.893Z,587.49
2022-09-26T00:00:37.893Z,587.53
2022-09-26T00:00:47.962Z,587.45
2022-09-26T00:00:57.931Z,587.57
2022-09-26T00:01:08.017Z,587.57
2022-09-26T00:01:17.976Z,587.59
2022-09-26T00:01:27.934Z,587.63
2022-09-26T00:01:38.160Z,587.55
2022-09-26T00:01:47.985Z,587.55
2022-09-26T00:01:58.009Z,587.65
2022-09-26T00:02:07.925Z,587.65
2022-09-26T00:02:18.029Z,587.67
2022-09-26T00:02:27.939Z,587.62
2022-09-26T00:02:37.955Z,587.63
2022-09-26T00:02:47.968Z,587.60
2022-09-26T00:02:57.943Z,587.64
2022-09-26T00:03:07.909Z,587.70
2022-09-26T00:03:17.916Z,587.69
2022-09-26T00:03:27.914Z,587.69
2022-09-26T00:03:37.918Z,587.72
2022-09-26T00:03:47.916Z,587.70
2022-09-26T00:03:57.915Z,587.70
2022-09-26T00:04:08.907Z,587.65
2022-09-26T00:04:22.310Z,587.69
2022-09-26T00:04:32.391Z,587.69
2022-09-26T00:04:37.919Z,587.75
2022-09-26T00:04:47.921Z,587.73
2022-09-26T00:04:57.923Z,587.73
2022-09-26T00:05:07.926Z,587.76
2022-09-26T00:05:17.924Z,587.89
2022-09-26T00:05:27.926Z,587.92
2022-09-26T00:05:37.927Z,587.87
2022-09-26T00:05:47.931Z,587.98
2022-09-26T00:05:57.925Z,588.02
2022-09-26T00:06:07.950Z,587.99
2022-09-26T00:06:17.930Z,588.08
2022-09-26T00:06:27.938Z,588.07
2022-09-26T00:06:37.940Z,588.18
2022-09-26T00:06:47.933Z,588.17
2022-09-26T00:06:57.932Z,588.15
2022-09-26T00:07:07.933Z,588.17
2022-09-26T00:07:17.943Z,588.30
2022-09-26T00:07:27.938Z,588.29
2022-09-26T00:07:37.941Z,588.31
2022-09-26T00:07:47.944Z,588.40
2022-09-26T00:07:57.941Z,588.34
2022-09-26T00:08:07.941Z,588.47
2022-09-26T00:08:17.944Z,588.45
2022-09-26T00:08:27.945Z,588.48
2022-09-26T00:08:37.946Z,588.53
2022-09-26T00:08:47.947Z,588.50
2022-09-26T00:08:57.947Z,588.54
2022-09-26T00:09:07.968Z,588.61
2022-09-26T00:09:17.950Z,588.55
2022-09-26T00:09:27.951Z,588.57
2022-09-26T00:09:37.955Z,588.64
2022-09-26T00:09:47.957Z,588.58
2022-09-26T00:09:57.955Z,588.60
2022-09-26T00:10:07.956Z,588.68
2022-09-26T00:10:17.956Z,588.71
2022-09-26T00:10:27.960Z,588.74
2022-09-26T00:10:37.959Z,588.70
2022-09-26T00:10:47.971Z,588.72
2022-09-26T00:10:57.966Z,588.70
2022-09-26T00:11:07.961Z,588.82
2022-09-26T00:11:17.970Z,588.84
2022-09-26T00:11:27.967Z,588.83
2022-09-26T00:11:37.965Z,588.86
2022-09-26T00:11:47.962Z,588.84
2022-09-26T00:11:57.963Z,588.86
2022-09-26T00:12:07.968Z,588.95
2022-09-26T00:12:17.968Z,588.95
2022-09-26T00:12:27.975Z,588.98
2022-09-26T00:12:37.973Z,588.93
2022-09-26T00:12:47.974Z,588.93
2022-09-26T00:12:57.973Z,588.92
2022-09-26T00:13:07.976Z,589.01
2022-09-26T00:13:17.990Z,588.97
2022-09-26T00:13:27.977Z,589.12
2022-09-26T00:13:37.978Z,589.11
2022-09-26T00:13:47.978Z,589.04
2022-09-26T00:13:57.983Z,589.10
2022-09-26T00:14:07.981Z,589.16
2022-09-26T00:14:17.981Z,589.21
2022-09-26T00:14:27.981Z,589.14
2022-09-26T00:14:37.984Z,589.25
2022-09-26T00:14:47.986Z,589.21
2022-09-26T00:14:57.988Z,589.15
2022-09-26T00:15:07.988Z,589.17
2022-09-26T00:15:17.993Z,589.13
2022-09-26T00:15:27.989Z,589.21
2022-09-26T00:15:37.988Z,589.19
2022-09-26T00:15:47.996Z,589.16
2022-09-26T00:15:57.993Z,589.18
2022-09-26T00:16:07.996Z,589.20
2022-09-26T00:16:18.057Z,589.17
2022-09-26T00:16:28.077Z,589.27
2022-09-26T00:16:38.031Z,589.25
2022-09-26T00:16:48.034Z,589.15
2022-09-26T00:16:58.091Z,589.17
2022-09-26T00:17:08.071Z,589.15
2022-09-26T00:17:18.004Z,589.27
2022-09-26T00:17:28.002Z,589.27
2022-09-26T00:17:38.006Z,589.33
2022-09-26T00:17:48.013Z,589.32
2022-09-26T00:17:58.005Z,589.29
2022-09-26T00:18:08.005Z,589.29
2022-09-26T00:18:18.025Z,589.33
2022-09-26T00:18:28.007Z,589.30
2022-09-26T00:18:38.015Z,589.27
2022-09-26T00:18:48.010Z,589.33
2022-09-26T00:18:58.012Z,589.30
2022-09-26T00:19:08.185Z,589.26
2022-09-26T00:19:18.013Z,589.22
2022-09-26T00:19:28.015Z,589.28
2022-09-26T00:19:38.015Z,589.21
2022-09-26T00:19:48.016Z,589.24
2022-09-26T00:19:58.015Z,589.22
2022-09-26T00:20:08.017Z,589.19
2022-09-26T00:20:18.001Z,589.26
2022-09-26T00:20:28.019Z,589.21
2022-09-26T00:20:38.018Z,589.31
2022-09-26T00:20:48.020Z,589.31
2022-09-26T00:20:58.021Z,589.31
2022-09-26T00:21:08.020Z,589.31
2022-09-26T00:21:18.025Z,589.29
2022-09-26T00:21:28.024Z,589.30
2022-09-26T00:21:38.026Z,589.30
2022-09-26T00:21:48.027Z,589.30
2022-09-26T00:21:58.027Z,589.28
2022-09-26T00:22:08.032Z,589.32
2022-09-26T00:22:18.011Z,589.27
2022-09-26T00:22:28.031Z,589.30
2022-09-26T00:22:38.034Z,589.29
2022-09-26T00:22:48.032Z,589.26
2022-09-26T00:22:58.033Z,589.34
2022-09-26T00:23:08.036Z,589.25
2022-09-26T00:23:18.054Z,589.36
2022-09-26T00:23:28.035Z,589.24
2022-09-26T00:23:38.019Z,589.34
2022-09-26T00:23:48.046Z,589.32
2022-09-26T00:23:58.039Z,589.31
2022-09-26T00:24:08.040Z,589.26
2022-09-26T00:24:18.042Z,589.32
2022-09-26T00:24:28.025Z,589.26
2022-09-26T00:24:38.042Z,589.33
2022-09-26T00:24:48.043Z,589.34
2022-09-26T00:24:58.044Z,589.28
2022-09-26T00:25:08.048Z,589.32
2022-09-26T00:25:18.111Z,589.30
2022-09-26T00:25:28.047Z,589.27
2022-09-26T00:25:38.046Z,589.32
2022-09-26T00:25:48.048Z,589.43
2022-09-26T00:25:58.049Z,589.42
2022-09-26T00:26:08.049Z,589.45
2022-09-26T00:26:18.053Z,589.53
2022-09-26T00:26:28.053Z,589.44
2022-09-26T00:26:38.053Z,589.54
2022-09-26T00:26:48.054Z,589.49
2022-09-26T00:26:58.055Z,589.58
2022-09-26T00:27:08.058Z,589.53
2022-09-26T00:27:18.058Z,589.56
2022-09-26T00:27:28.059Z,589.60
2022-09-26T00:27:38.060Z,589.59
2022-09-26T00:27:48.059Z,589.58
2022-09-26T00:27:58.062Z,589.63
2022-09-26T00:28:08.063Z,589.63
2022-09-26T00:28:18.087Z,589.61
2022-09-26T00:28:28.064Z,589.65
2022-09-26T00:28:38.066Z,589.69
2022-09-26T00:28:48.067Z,589.69
2022-09-26T00:28:58.067Z,589.76
2022-09-26T00:29:08.056Z,589.69
2022-09-26T00:29:18.068Z,589.73
2022-09-26T00:29:28.070Z,589.77
2022-09-26T00:29:38.070Z,589.75
2022-09-26T00:29:48.071Z,589.73
2022-09-26T00:29:58.079Z,589.74
2022-09-26T00:30:08.073Z,589.73
2022-09-26T00:30:18.316Z,589.73
2022-09-26T00:30:28.156Z,589.77
2022-09-26T00:30:38.112Z,589.71
2022-09-26T00:30:48.166Z,589.76
2022-09-26T00:30:58.111Z,589.74
2022-09-26T00:31:08.212Z,589.76
2022-09-26T00:31:18.137Z,589.72
2022-09-26T00:31:28.078Z,589.72
2022-09-26T00:31:38.150Z,589.70
2022-09-26T00:31:48.082Z,589.73
2022-09-26T00:31:58.085Z,589.81
2022-09-26T00:32:08.086Z,589.82
2022-09-26T00:32:18.099Z,589.75
2022-09-26T00:32:28.087Z,589.78
2022-09-26T00:32:38.071Z,589.75
2022-09-26T00:32:48.089Z,589.72
2022-09-26T00:32:58.091Z,589.73
2022-09-26T00:33:08.090Z,589.80
2022-09-26T00:33:18.110Z,589.85
2022-09-26T00:33:28.093Z,589.84
2022-09-26T00:33:38.074Z,589.82
2022-09-26T00:33:48.092Z,589.86
2022-09-26T00:33:58.094Z,589.80
2022-09-26T00:34:08.096Z,589.85
2022-09-26T00:34:18.096Z,589.81
2022-09-26T00:34:28.102Z,589.81
2022-09-26T00:34:38.099Z,589.83
2022-09-26T00:34:48.099Z,589.92
2022-09-26T00:34:58.100Z,589.87
2022-09-26T00:35:08.102Z,589.91
2022-09-26T00:35:18.102Z,589.89
2022-09-26T00:35:28.113Z,589.90
2022-09-26T00:35:38.107Z,589.93
2022-09-26T00:35:48.106Z,590.02
2022-09-26T00:35:58.109Z,590.05
2022-09-26T00:36:08.109Z,590.04
2022-09-26T00:36:18.109Z,590.08
2022-09-26T00:36:37.408Z,590.11
2022-09-26T00:36:39.130Z,590.07
2022-09-26T00:36:48.112Z,590.01
2022-09-26T00:36:58.113Z,589.99
2022-09-26T00:37:08.114Z,589.99
2022-09-26T00:37:18.115Z,590.04
2022-09-26T00:37:28.120Z,590.02
2022-09-26T00:37:38.119Z,589.97
2022-09-26T00:37:48.119Z,590.09
2022-09-26T00:37:58.121Z,590.12
2022-09-26T00:38:08.123Z,590.11
2022-09-26T00:38:18.137Z,590.10
2022-09-26T00:38:28.125Z,590.09
2022-09-26T00:38:38.125Z,590.17
2022-09-26T00:38:48.128Z,590.11
2022-09-26T00:38:58.125Z,590.05
2022-09-26T00:39:08.125Z,590.16
2022-09-26T00:39:18.111Z,590.09
2022-09-26T00:39:28.130Z,590.13
2022-09-26T00:39:38.128Z,590.22
2022-09-26T00:39:48.138Z,590.29
2022-09-26T00:39:58.133Z,590.26
2022-09-26T00:40:08.135Z,590.27
2022-09-26T00:40:18.174Z,590.27
2022-09-26T00:40:28.243Z,590.25
2022-09-26T00:40:38.184Z,590.38
2022-09-26T00:40:48.221Z,590.41
2022-09-26T00:40:58.224Z,590.40
2022-09-26T00:41:08.143Z,590.51
2022-09-26T00:41:18.141Z,590.50
2022-09-26T00:41:28.142Z,590.44
2022-09-26T00:41:38.217Z,590.57
2022-09-26T00:41:48.149Z,590.54
2022-09-26T00:41:58.146Z,590.55
2022-09-26T00:42:08.148Z,590.68
2022-09-26T00:42:18.149Z,590.63
2022-09-26T00:42:28.150Z,590.71
2022-09-26T00:42:38.152Z,590.71
2022-09-26T00:42:48.153Z,590.69
2022-09-26T00:42:58.157Z,590.78
2022-09-26T00:43:08.155Z,590.80
2022-09-26T00:43:18.184Z,590.74
2022-09-26T00:43:28.158Z,590.86
2022-09-26T00:43:38.156Z,590.88
2022-09-26T00:43:48.156Z,590.84
2022-09-26T00:43:58.159Z,590.92
2022-09-26T00:44:08.160Z,590.95
2022-09-26T00:44:18.159Z,590.89
2022-09-26T00:44:28.163Z,590.97
2022-09-26T00:44:38.162Z,590.97
2022-09-26T00:44:48.161Z,590.99
2022-09-26T00:44:58.161Z,591.10
2022-09-26T00:45:08.164Z,591.01
2022-09-26T00:45:18.164Z,591.01
2022-09-26T00:45:28.165Z,591.12
2022-09-26T00:45:38.205Z,591.10
2022-09-26T00:45:48.231Z,591.01
2022-09-26T00:45:58.233Z,591.05
2022-09-26T00:46:08.181Z,591.08
2022-09-26T00:46:18.240Z,591.08
2022-09-26T00:46:28.236Z,591.21
2022-09-26T00:46:38.180Z,591.21
2022-09-26T00:46:48.171Z,591.15
2022-09-26T00:46:58.172Z,591.24
2022-09-26T00:47:08.173Z,591.20
2022-09-26T00:47:18.175Z,591.21
2022-09-26T00:47:28.176Z,591.33
2022-09-26T00:47:38.176Z,591.28
2022-09-26T00:47:48.177Z,591.35
2022-09-26T00:47:58.179Z,591.33
2022-09-26T00:48:08.191Z,591.37
2022-09-26T00:48:18.183Z,591.46
2022-09-26T00:48:28.182Z,591.40
2022-09-26T00:48:38.184Z,591.41
2022-09-26T00:48:48.184Z,591.53
2022-09-26T00:48:58.183Z,591.50
2022-09-26T00:49:08.198Z,591.52
2022-09-26T00:49:18.187Z,591.48
2022-09-26T00:49:28.188Z,591.49
2022-09-26T00:49:38.187Z,591.51
2022-09-26T00:49:48.190Z,591.57
2022-09-26T00:49:58.191Z,591.60
2022-09-26T00:50:08.191Z,591.68
2022-09-26T00:50:18.194Z,591.64
2022-09-26T00:50:28.194Z,591.71
2022-09-26T00:50:38.192Z,591.72
2022-09-26T00:50:48.203Z,591.66
2022-09-26T00:50:58.196Z,591.66
2022-09-26T00:51:08.195Z,591.66
2022-09-26T00:51:18.200Z,591.72
2022-09-26T00:51:28.199Z,591.73
2022-09-26T00:51:38.295Z,591.74
2022-09-26T00:51:48.204Z,591.76
2022-09-26T00:51:58.203Z,591.76
2022-09-26T00:52:08.222Z,591.79
2022-09-26T00:52:18.206Z,591.76
2022-09-26T00:52:28.205Z,591.73
2022-09-26T00:52:38.188Z,591.73
2022-09-26T00:52:48.213Z,591.71
2022-09-26T00:52:58.209Z,591.75
2022-09-26T00:53:08.191Z,591.75
2022-09-26T00:53:18.222Z,591.74
2022-09-26T00:53:28.211Z,591.75
2022-09-26T00:53:38.213Z,591.83
2022-09-26T00:53:48.212Z,591.74
2022-09-26T00:53:58.218Z,591.72
2022-09-26T00:54:08.215Z,591.79
2022-09-26T00:54:18.217Z,591.81
2022-09-26T00:54:28.218Z,591.82
2022-09-26T00:54:38.217Z,591.78
2022-09-26T00:54:48.217Z,591.84
2022-09-26T00:54:58.227Z,591.77
2022-09-26T00:55:08.220Z,591.82
2022-09-26T00:55:18.222Z,591.84
2022-09-26T00:55:28.221Z,591.83
2022-09-26T00:55:38.224Z,591.82
2022-09-26T00:55:48.223Z,591.89
2022-09-26T00:55:58.232Z,591.92
2022-09-26T00:56:08.232Z,591.93
2022-09-26T00:56:18.227Z,591.95
2022-09-26T00:56:28.227Z,591.97
2022-09-26T00:56:38.229Z,592.03
2022-09-26T00:56:48.230Z,592.03
2022-09-26T00:56:58.232Z,592.11
2022-09-26T00:57:08.235Z,592.14
2022-09-26T00:57:18.234Z,592.14
2022-09-26T00:57:28.219Z,592.14
2022-09-26T00:57:38.235Z,592.16
2022-09-26T00:57:48.238Z,592.18
2022-09-26T00:57:58.255Z,592.23
2022-09-26T00:58:08.240Z,592.22
2022-09-26T00:58:18.252Z,592.19
2022-09-26T00:58:28.241Z,592.20
2022-09-26T00:58:38.242Z,592.18
2022-09-26T00:58:48.227Z,592.16
2022-09-26T00:58:58.250Z,592.25
2022-09-26T00:59:08.247Z,592.22
2022-09-26T00:59:18.248Z,592.22
2022-09-26T00:59:28.233Z,592.16
2022-09-26T00:59:38.235Z,592.18
2022-09-26T00:59:48.252Z,592.13
2022-09-26T00:59:58.252Z,592.26
2022-09-26T01:00:08.254Z,592.20
2022-09-26T01:00:18.253Z,592.20
2022-09-26T01:00:28.257Z,592.26
2022-09-26T01:00:42.030Z,592.24
2022-09-26T01:00:48.308Z,592.23
2022-09-26T01:00:58.350Z,592.30
2022-09-26T01:01:08.390Z,592.31
2022-09-26T01:01:18.319Z,592.30
2022-09-26T01:01:28.402Z,592.41
2022-09-26T01:01:38.444Z,592.43
2022-09-26T01:01:48.311Z,592.40
2022-09-26T01:01:58.358Z,592.50
2022-09-26T01:02:08.323Z,592.53
2022-09-26T01:02:18.355Z,592.52
2022-09-26T01:02:28.351Z,592.57
2022-09-26T01:02:38.396Z,592.58
2022-09-26T01:02:48.333Z,592.58
2022-09-26T01:02:58.266Z,592.63
2022-09-26T01:03:08.265Z,592.64
2022-09-26T01:03:18.286Z,592.65
2022-09-26T01:03:28.269Z,592.65
2022-09-26T01:03:38.267Z,592.67
2022-09-26T01:03:48.268Z,592.80
2022-09-26T01:03:58.270Z,592.84
2022-09-26T01:04:08.269Z,592.86
2022-09-26T01:04:18.272Z,592.80
2022-09-26T01:04:28.272Z,592.83
2022-09-26T01:04:38.273Z,592.89
2022-09-26T01:04:48.273Z,592.88
2022-09-26T01:04:58.274Z,592.92
2022-09-26T01:05:08.276Z,592.95
2022-09-26T01:05:18.279Z,592.96
2022-09-26T01:05:28.292Z,593.00
2022-09-26T01:05:38.278Z,592.95
2022-09-26T01:05:48.281Z,593.04
2022-09-26T01:05:58.295Z,593.04
2022-09-26T01:06:08.282Z,593.06
2022-09-26T01:06:18.281Z,593.17
2022-09-26T01:06:28.285Z,593.24
2022-09-26T01:06:38.285Z,593.19
2022-09-26T01:06:48.284Z,593.32
2022-09-26T01:06:58.291Z,593.28
2022-09-26T01:07:08.286Z,593.31
2022-09-26T01:07:18.287Z,593.36
2022-09-26T01:07:28.288Z,593.37
2022-09-26T01:07:38.292Z,593.43
2022-09-26T01:07:48.292Z,593.46
2022-09-26T01:07:58.294Z,593.44
2022-09-26T01:08:08.294Z,593.45
2022-09-26T01:08:18.313Z,593.51
2022-09-26T01:08:28.297Z,593.48
2022-09-26T01:08:38.298Z,593.53
2022-09-26T01:08:48.297Z,593.50
2022-09-26T01:08:58.300Z,593.56
2022-09-26T01:09:08.317Z,593.60
2022-09-26T01:09:18.299Z,593.60
2022-09-26T01:09:28.302Z,593.59
2022-09-26T01:09:38.301Z,593.67
2022-09-26T01:09:48.302Z,593.63
2022-09-26T01:09:58.289Z,593.63
2022-09-26T01:10:08.305Z,593.72
2022-09-26T01:10:18.305Z,593.72
2022-09-26T01:10:28.305Z,593.74
2022-09-26T01:10:38.307Z,593.74
2022-09-26T01:10:48.307Z,593.72
2022-09-26T01:10:58.311Z,593.78
2022-09-26T01:11:08.307Z,593.73
2022-09-26T01:11:18.312Z,593.78
2022-09-26T01:11:28.311Z,593.68
2022-09-26T01:11:38.310Z,593.74
2022-09-26T01:11:48.293Z,593.74
2022-09-26T01:11:58.311Z,593.80
2022-09-26T01:12:08.312Z,593.79
2022-09-26T01:12:18.313Z,593.76
2022-09-26T01:12:28.313Z,593.87
2022-09-26T01:12:38.317Z,593.81
2022-09-26T01:12:48.319Z,593.78
2022-09-26T01:12:58.316Z,593.89
2022-09-26T01:13:08.319Z,593.90
2022-09-26T01:13:18.348Z,593.82
2022-09-26T01:13:28.321Z,593.89
2022-09-26T01:13:38.321Z,593.87
2022-09-26T01:13:48.321Z,593.92
2022-09-26T01:13:58.323Z,594.01
2022-09-26T01:14:08.317Z,594.02
2022-09-26T01:14:18.327Z,594.04
2022-09-26T01:14:28.332Z,594.08
2022-09-26T01:14:38.328Z,594.12
2022-09-26T01:14:48.328Z,594.21
2022-09-26T01:14:58.330Z,594.21
2022-09-26T01:15:08.330Z,594.23
2022-09-26T01:15:18.332Z,594.35
2022-09-26T01:15:28.335Z,594.38
2022-09-26T01:15:38.334Z,594.42
2022-09-26T01:15:48.358Z,594.47
2022-09-26T01:15:58.335Z,594.54
2022-09-26T01:16:08.371Z,594.54
2022-09-26T01:16:18.418Z,594.66
2022-09-26T01:16:28.367Z,594.64
2022-09-26T01:16:38.390Z,594.70
2022-09-26T01:16:48.420Z,594.71
2022-09-26T01:16:58.377Z,594.79
2022-09-26T01:17:08.407Z,594.75
2022-09-26T01:17:18.344Z,594.87
2022-09-26T01:17:28.346Z,594.92
2022-09-26T01:17:38.357Z,594.89
2022-09-26T01:17:48.346Z,595.01
2022-09-26T01:17:58.347Z,595.01
2022-09-26T01:18:08.348Z,594.97
2022-09-26T01:18:18.362Z,595.06
2022-09-26T01:18:28.351Z,595.08
2022-09-26T01:18:38.350Z,595.13
2022-09-26T01:18:48.351Z,595.11
2022-09-26T01:18:58.353Z,595.13
2022-09-26T01:19:08.387Z,595.18
2022-09-26T01:19:18.356Z,595.26
2022-09-26T01:19:28.356Z,595.24
2022-09-26T01:19:38.358Z,595.24
2022-09-26T01:19:48.359Z,595.32
2022-09-26T01:19:58.357Z,595.27
2022-09-26T01:20:08.361Z,595.33
2022-09-26T01:20:18.362Z,595.35
2022-09-26T01:20:28.366Z,595.31
2022-09-26T01:20:38.363Z,595.32
2022-09-26T01:20:48.365Z,595.33
2022-09-26T01:20:58.364Z,595.35
2022-09-26T01:21:08.364Z,595.36
2022-09-26T01:21:18.347Z,595.35
2022-09-26T01:21:28.368Z,595.34
2022-09-26T01:21:38.366Z,595.38
2022-09-26T01:21:48.369Z,595.36
2022-09-26T01:21:58.372Z,595.35
2022-09-26T01:22:08.370Z,595.39
2022-09-26T01:22:18.369Z,595.34
2022-09-26T01:22:28.371Z,595.34
2022-09-26T01:22:38.354Z,595.36
2022-09-26T01:22:48.371Z,595.38
2022-09-26T01:22:58.372Z,595.31
2022-09-26T01:23:08.377Z,595.40
2022-09-26T01:23:18.392Z,595.40
2022-09-26T01:23:28.376Z,595.42
2022-09-26T01:23:38.376Z,595.40
2022-09-26T01:23:48.377Z,595.39
2022-09-26T01:23:58.390Z,595.40
2022-09-26T01:24:08.381Z,595.47
2022-09-26T01:24:18.382Z,595.40
2022-09-26T01:24:28.364Z,595.40
2022-09-26T01:24:38.388Z,595.50
2022-09-26T01:24:48.383Z,595.51
2022-09-26T01:24:58.386Z,595.45
2022-09-26T01:25:08.388Z,595.55
2022-09-26T01:25:18.372Z,595.55
2022-09-26T01:25:28.395Z,595.51
2022-09-26T01:25:38.390Z,595.50
2022-09-26T01:25:48.391Z,595.57
2022-09-26T01:25:58.391Z,595.63
2022-09-26T01:26:08.393Z,595.61
2022-09-26T01:26:18.393Z,595.58
2022-09-26T01:26:28.393Z,595.52
2022-09-26T01:26:38.393Z,595.55
2022-09-26T01:26:48.395Z,595.58
2022-09-26T01:26:58.396Z,595.57
2022-09-26T01:27:08.404Z,595.63
2022-09-26T01:27:18.397Z,595.63
2022-09-26T01:27:28.401Z,595.64
2022-09-26T01:27:38.401Z,595.66
2022-09-26T01:27:48.399Z,595.64
2022-09-26T01:27:58.402Z,595.59
2022-09-26T01:28:08.401Z,595.59
2022-09-26T01:28:18.425Z,595.56
2022-09-26T01:28:28.402Z,595.65
2022-09-26T01:28:38.385Z,595.63
2022-09-26T01:28:48.407Z,595.62
2022-09-26T01:28:58.405Z,595.70
2022-09-26T01:29:08.506Z,595.63
2022-09-26T01:29:18.405Z,595.73
2022-09-26T01:29:28.408Z,595.67
2022-09-26T01:29:38.406Z,595.73
2022-09-26T01:29:48.409Z,595.76
2022-09-26T01:29:58.406Z,595.79
2022-09-26T01:30:08.409Z,595.72
2022-09-26T01:30:18.409Z,595.78
2022-09-26T01:30:28.490Z,595.86
2022-09-26T01:30:38.478Z,595.89
2022-09-26T01:30:48.499Z,595.91
2022-09-26T01:30:58.463Z,595.94
2022-09-26T01:31:08.496Z,595.98
2022-09-26T01:31:18.460Z,596.09
2022-09-26T01:31:28.416Z,596.08
2022-09-26T01:31:38.416Z,596.13
2022-09-26T01:31:48.416Z,596.11
2022-09-26T01:31:58.418Z,596.15
2022-09-26T01:32:08.418Z,596.16
2022-09-26T01:32:18.419Z,596.29
2022-09-26T01:32:28.420Z,596.30
2022-09-26T01:32:38.419Z,596.31
2022-09-26T01:32:48.420Z,596.32
2022-09-26T01:32:58.423Z,596.44
2022-09-26T01:33:08.425Z,596.49
2022-09-26T01:33:18.438Z,596.49
2022-09-26T01:33:28.424Z,596.52
2022-09-26T01:33:38.424Z,596.59
2022-09-26T01:33:48.434Z,596.61
2022-09-26T01:33:58.425Z,596.71
2022-09-26T01:34:08.429Z,596.74
2022-09-26T01:34:18.426Z,596.73
2022-09-26T01:34:28.430Z,596.73
2022-09-26T01:34:38.426Z,596.72
2022-09-26T01:34:48.433Z,596.83
2022-09-26T01:34:58.432Z,596.81
2022-09-26T01:35:08.432Z,596.89
2022-09-26T01:35:18.432Z,596.91
2022-09-26T01:35:28.433Z,596.91
2022-09-26T01:35:38.436Z,596.99
2022-09-26T01:35:48.436Z,596.99
2022-09-26T01:35:58.436Z,596.94
2022-09-26T01:36:08.441Z,597.01
2022-09-26T01:36:18.441Z,597.02
2022-09-26T01:36:28.443Z,597.01
2022-09-26T01:36:38.443Z,597.04
2022-09-26T01:36:48.444Z,597.00
2022-09-26T01:36:58.442Z,596.95
2022-09-26T01:37:08.444Z,596.94
2022-09-26T01:37:18.446Z,596.98
2022-09-26T01:37:28.445Z,596.92
2022-09-26T01:37:38.449Z,596.93
2022-09-26T01:37:48.447Z,596.87
2022-09-26T01:37:58.449Z,596.81
2022-09-26T01:38:08.451Z,596.87
2022-09-26T01:38:18.464Z,596.86
2022-09-26T01:38:28.451Z,596.81
2022-09-26T01:38:38.454Z,596.75
2022-09-26T01:38:48.460Z,596.76
2022-09-26T01:38:58.455Z,596.77
2022-09-26T01:39:08.527Z,596.74
2022-09-26T01:39:18.456Z,596.69
2022-09-26T01:39:28.455Z,596.65
2022-09-26T01:39:38.460Z,596.77
2022-09-26T01:39:48.440Z,596.75
2022-09-26T01:39:58.459Z,596.75
2022-09-26T01:40:08.441Z,596.72
2022-09-26T01:40:18.514Z,596.71
2022-09-26T01:40:28.481Z,596.77
2022-09-26T01:40:38.520Z,596.78
2022-09-26T01:40:48.548Z,596.79
2022-09-26T01:40:58.539Z,596.91
2022-09-26T01:41:08.466Z,596.89
2022-09-26T01:41:18.469Z,596.98
2022-09-26T01:41:28.468Z,596.98
2022-09-26T01:41:38.472Z,596.96
2022-09-26T01:41:48.454Z,597.01
2022-09-26T01:41:58.472Z,597.16
2022-09-26T01:42:08.473Z,597.18
2022-09-26T01:42:18.475Z,597.14
2022-09-26T01:42:28.476Z,597.07
2022-09-26T01:42:38.477Z,597.13
2022-09-26T01:42:48.479Z,597.07
2022-09-26T01:42:58.479Z,597.06
2022-09-26T01:43:08.480Z,597.04
2022-09-26T01:43:18.501Z,597.00
2022-09-26T01:43:28.482Z,597.01
2022-09-26T01:43:38.465Z,596.98
2022-09-26T01:43:48.482Z,597.01
2022-09-26T01:43:58.486Z,596.92
2022-09-26T01:44:08.485Z,596.91
2022-09-26T01:44:18.493Z,596.93
2022-09-26T01:44:28.469Z,596.93
2022-09-26T01:44:38.489Z,596.86
2022-09-26T01:44:48.490Z,596.89
2022-09-26T01:44:58.492Z,596.95
2022-09-26T01:45:08.494Z,596.85
2022-09-26T01:45:18.493Z,596.91
2022-09-26T01:45:28.561Z,596.92
2022-09-26T01:45:38.546Z,596.90
2022-09-26T01:45:48.519Z,596.85
2022-09-26T01:45:58.579Z,596.86
2022-09-26T01:46:08.527Z,596.82
2022-09-26T01:46:18.517Z,596.82
2022-09-26T01:46:28.521Z,596.89
2022-09-26T01:46:38.501Z,596.85
2022-09-26T01:46:48.501Z,596.84
2022-09-26T01:46:58.485Z,596.85
2022-09-26T01:47:08.504Z,596.80
2022-09-26T01:47:18.506Z,596.88
2022-09-26T01:47:28.510Z,596.89
2022-09-26T01:47:38.489Z,596.92
2022-09-26T01:47:48.520Z,596.89
2022-09-26T01:47:58.490Z,596.85
2022-09-26T01:48:08.507Z,596.86
2022-09-26T01:48:18.575Z,596.95
2022-09-26T01:48:28.510Z,596.94
2022-09-26T01:48:38.514Z,596.97
2022-09-26T01:48:48.522Z,596.93
2022-09-26T01:48:58.513Z,596.95
2022-09-26T01:49:08.581Z,596.96
2022-09-26T01:49:18.494Z,596.96
2022-09-26T01:49:28.516Z,597.03
2022-09-26T01:49:38.516Z,596.96
2022-09-26T01:49:48.519Z,597.11
2022-09-26T01:49:58.522Z,597.04
2022-09-26T01:50:08.524Z,597.12
2022-09-26T01:50:18.521Z,597.19
2022-09-26T01:50:28.527Z,597.11
2022-09-26T01:50:38.524Z,597.24
2022-09-26T01:50:48.523Z,597.25
2022-09-26T01:50:58.532Z,597.25
2022-09-26T01:51:08.526Z,597.24
2022-09-26T01:51:18.526Z,597.24
2022-09-26T01:51:28.556Z,597.22
2022-09-26T01:51:38.530Z,597.28
2022-09-26T01:51:48.529Z,597.29
2022-09-26T01:51:58.533Z,597.33
2022-09-26T01:52:08.532Z,597.31
2022-09-26T01:52:18.534Z,597.33
2022-09-26T01:52:28.540Z,597.36
2022-09-26T01:52:38.536Z,597.34
2022-09-26T01:52:48.537Z,597.37
2022-09-26T01:52:58.539Z,597.36
2022-09-26T01:53:08.542Z,597.48
2022-09-26T01:53:18.541Z,597.52
2022-09-26T01:53:28.543Z,597.56
2022-09-26T01:53:38.540Z,597.53
2022-09-26T01:53:48.545Z,597.55
2022-09-26T01:53:58.545Z,597.59
2022-09-26T01:54:08.549Z,597.58
2022-09-26T01:54:18.545Z,597.61
2022-09-26T01:54:28.550Z,597.61
2022-09-26T01:54:38.550Z,597.70
2022-09-26T01:54:48.548Z,597.73
2022-09-26T01:54:58.551Z,597.68
2022-09-26T01:55:08.554Z,597.79
2022-09-26T01:55:18.551Z,597.73
2022-09-26T01:55:28.552Z,597.75
2022-09-26T01:55:38.552Z,597.83
2022-09-26T01:55:48.554Z,597.84
2022-09-26T01:55:58.556Z,597.84
2022-09-26T01:56:08.555Z,597.85
2022-09-26T01:56:18.555Z,597.87
2022-09-26T01:56:28.554Z,597.88
2022-09-26T01:56:38.558Z,597.98
2022-09-26T01:56:48.557Z,598.03
2022-09-26T01:56:58.558Z,598.00
2022-09-26T01:57:08.559Z,597.99
2022-09-26T01:57:18.561Z,597.90
2022-09-26T01:57:28.562Z,597.99
2022-09-26T01:57:38.565Z,597.92
2022-09-26T01:57:48.565Z,597.83
2022-09-26T01:57:58.564Z,597.88
2022-09-26T01:58:08.564Z,597.89
2022-09-26T01:58:18.581Z,597.84
2022-09-26T01:58:28.568Z,597.87
2022-09-26T01:58:38.572Z,597.90
2022-09-26T01:58:48.570Z,597.82
2022-09-26T01:58:58.572Z,597.94
2022-09-26T01:59:08.611Z,597.94
2022-09-26T01:59:18.575Z,597.90
2022-09-26T01:59:28.574Z,597.96
2022-09-26T01:59:38.576Z,597.95
2022-09-26T01:59:48.580Z,597.96
2022-09-26T01:59:58.576Z,598.03
2022-09-26T02:00:08.577Z,598.02
2022-09-26T02:00:18.578Z,597.99
2022-09-26T02:00:28.577Z,598.05
2022-09-26T02:00:38.581Z,598.06
2022-09-26T02:00:48.614Z,598.06
2022-09-26T02:00:58.686Z,598.00
2022-09-26T02:01:08.637Z,598.00
2022-09-26T02:01:18.741Z,597.95
2022-09-26T02:01:28.669Z,598.03
2022-09-26T02:01:38.641Z,597.97
2022-09-26T02:01:48.740Z,597.89
2022-09-26T02:01:58.635Z,597.89
2022-09-26T02:02:08.637Z,597.92
2022-09-26T02:02:18.675Z,597.90
2022-09-26T02:02:28.728Z,597.90
2022-09-26T02:02:38.662Z,597.86
2022-09-26T02:02:48.663Z,597.88
2022-09-26T02:02:58.594Z,597.86
2022-09-26T02:03:08.597Z,597.84
2022-09-26T02:03:18.612Z,597.93
2022-09-26T02:03:28.597Z,597.94
2022-09-26T02:03:38.608Z,597.89
2022-09-26T02:03:48.599Z,598.01
2022-09-26T02:03:58.604Z,598.00
2022-09-26T02:04:08.602Z,598.08
2022-09-26T02:04:18.605Z,598.06
2022-09-26T02:04:28.602Z,598.11
2022-09-26T02:04:38.605Z,598.15
2022-09-26T02:04:48.604Z,598.27